createdAt,value
2022-12-19T00:01:35.380Z,0.41
2022-12-19T00:04:08.580Z,0.41
2022-12-19T00:06:37.365Z,0.41
2022-12-19T00:09:04.972Z,0.41
2022-12-19T00:11:32.577Z,0.40
2022-12-19T00:14:00.318Z,0.40
2022-12-19T00:16:29.811Z,0.41
2022-12-19T00:18:59.444Z,0.40
2022-12-19T00:21:29.156Z,0.40
2022-12-19T00:23:56.589Z,0.37
2022-12-19T00:26:28.710Z,0.41
2022-12-19T00:28:58.421Z,0.40
2022-12-19T00:31:27.795Z,0.41
2022-12-19T00:33:54.674Z,0.42
2022-12-19T00:36:24.093Z,0.41
2022-12-19T00:38:52.891Z,0.41
2022-12-19T00:41:31.599Z,0.40
2022-12-19T00:44:01.456Z,0.39
2022-12-19T00:46:30.912Z,0.38
2022-12-19T00:48:57.798Z,0.37
2022-12-19T00:51:26.922Z,0.37
2022-12-19T00:53:55.420Z,0.37
2022-12-19T00:56:24.955Z,0.35
2022-12-19T00:58:52.597Z,0.33
2022-12-19T01:01:22.283Z,0.32
2022-12-19T01:04:26.088Z,0.30
2022-12-19T01:06:35.717Z,0.28
2022-12-19T01:09:02.447Z,0.27
2022-12-19T01:11:47.355Z,0.26
2022-12-19T01:14:22.288Z,0.25
2022-12-19T01:16:50.057Z,0.23
2022-12-19T01:19:16.805Z,0.20
2022-12-19T01:21:43.508Z,0.19
2022-12-19T01:24:10.860Z,0.19
2022-12-19T01:26:37.612Z,0.19
2022-12-19T01:29:05.168Z,0.19
2022-12-19T01:31:33.299Z,0.19
2022-12-19T01:34:00.857Z,0.18
2022-12-19T01:36:28.489Z,0.18
2022-12-19T01:38:57.062Z,0.18
2022-12-19T01:41:24.171Z,0.16
2022-12-19T01:44:02.988Z,0.16
2022-12-19T01:46:42.714Z,0.15
2022-12-19T01:49:36.628Z,0.14
2022-12-19T01:52:07.966Z,0.14
2022-12-19T01:54:38.703Z,0.11
2022-12-19T01:57:10.963Z,0.10
2022-12-19T01:59:43.160Z,0.09
2022-12-19T02:02:14.991Z,0.07
2022-12-19T02:04:41.942Z,0.06
2022-12-19T02:07:15.138Z,0.04
2022-12-19T02:09:45.527Z,0.03
2022-12-19T02:12:12.780Z,0.01
2022-12-19T02:14:40.050Z,-0.02
2022-12-19T02:17:19.148Z,-0.03
2022-12-19T02:20:16.661Z,-0.08
2022-12-19T02:23:02.016Z,-0.09
2022-12-19T02:25:50.049Z,-0.11
2022-12-19T02:28:30.254Z,-0.14
2022-12-19T02:31:17.517Z,-0.16
2022-12-19T02:33:46.883Z,-0.16
2022-12-19T02:36:26.648Z,-0.16
2022-12-19T02:39:08.172Z,-0.17
2022-12-19T02:41:46.183Z,-0.17
2022-12-19T02:44:20.500Z,-0.16
2022-12-19T02:46:49.474Z,-0.12
2022-12-19T02:49:19.211Z,-0.17
2022-12-19T02:51:53.721Z,-0.19
2022-12-19T02:54:20.567Z,-0.19
2022-12-19T02:56:56.425Z,-0.18
2022-12-19T02:59:35.516Z,-0.20
2022-12-19T03:02:15.054Z,-0.21
2022-12-19T03:05:27.916Z,-0.25
2022-12-19T03:08:22.619Z,-0.27
2022-12-19T03:11:05.371Z,-0.30
2022-12-19T03:13:34.780Z,-0.30
2022-12-19T03:16:03.355Z,-0.27
2022-12-19T03:18:32.400Z,-0.25
2022-12-19T03:21:05.137Z,-0.21
2022-12-19T03:23:31.865Z,-0.20
2022-12-19T03:26:04.289Z,-0.19
2022-12-19T03:28:48.118Z,-0.20
2022-12-19T03:31:18.045Z,-0.20
2022-12-19T03:33:47.906Z,-0.15
2022-12-19T03:36:21.316Z,-0.11
2022-12-19T03:38:49.200Z,-0.09
2022-12-19T03:41:39.373Z,-0.07
2022-12-19T03:44:08.685Z,-0.05
2022-12-19T03:46:41.528Z,-0.03
2022-12-19T03:49:08.450Z,-0.02
2022-12-19T03:51:42.814Z,0.02
2022-12-19T03:54:17.149Z,0.04
2022-12-19T03:57:13.077Z,0.09
2022-12-19T03:59:45.424Z,0.11
2022-12-19T04:02:15.654Z,0.12
2022-12-19T04:04:52.447Z,0.16
2022-12-19T04:07:20.515Z,0.20
2022-12-19T04:09:49.519Z,0.22
2022-12-19T04:12:20.302Z,0.25
2022-12-19T04:14:48.317Z,0.27
2022-12-19T04:17:31.329Z,0.29
2022-12-19T04:20:13.330Z,0.33
2022-12-19T04:22:47.391Z,0.34
2022-12-19T04:25:18.486Z,0.36
2022-12-19T04:27:53.845Z,0.39
2022-12-19T04:30:20.503Z,0.43
2022-12-19T04:32:49.865Z,0.48
2022-12-19T04:35:16.781Z,0.51
2022-12-19T04:37:43.704Z,0.53
2022-12-19T04:40:11.316Z,0.53
2022-12-19T04:42:38.136Z,0.55
2022-12-19T04:45:06.051Z,0.56
2022-12-19T04:47:32.834Z,0.56
2022-12-19T04:49:59.480Z,0.60
2022-12-19T04:52:26.200Z,0.62
2022-12-19T04:54:52.862Z,0.63
2022-12-19T04:57:19.529Z,0.65
2022-12-19T04:59:46.171Z,0.66
2022-12-19T05:02:12.954Z,0.67
2022-12-19T05:04:39.714Z,0.67
2022-12-19T05:07:06.310Z,0.69
2022-12-19T05:09:33.942Z,0.70
2022-12-19T05:12:00.597Z,0.69
2022-12-19T05:14:27.861Z,0.70
2022-12-19T05:17:00.395Z,0.67
2022-12-19T05:19:29.332Z,0.70
2022-12-19T05:21:56.170Z,0.71
2022-12-19T05:24:23.237Z,0.71
2022-12-19T05:26:50.330Z,0.73
2022-12-19T05:29:17.466Z,0.71
2022-12-19T05:31:44.446Z,0.74
2022-12-19T05:34:11.466Z,0.75
2022-12-19T05:36:38.110Z,0.76
2022-12-19T05:39:04.864Z,0.79
2022-12-19T05:41:31.636Z,0.83
2022-12-19T05:43:58.312Z,0.85
2022-12-19T05:46:25.848Z,0.89
2022-12-19T05:48:52.967Z,0.92
2022-12-19T05:51:20.119Z,0.98
2022-12-19T05:53:47.147Z,1.00
2022-12-19T05:56:20.081Z,1.02
2022-12-19T05:58:47.640Z,1.06
2022-12-19T06:01:20.539Z,1.07
2022-12-19T06:03:48.250Z,1.11
2022-12-19T06:06:17.367Z,1.13
2022-12-19T06:08:44.432Z,1.15
2022-12-19T06:11:12.672Z,1.18
2022-12-19T06:13:39.696Z,1.20
2022-12-19T06:16:18.009Z,1.23
2022-12-19T06:18:46.011Z,1.25
2022-12-19T06:21:18.312Z,1.27
2022-12-19T06:23:46.072Z,1.29
2022-12-19T06:26:19.475Z,1.30
2022-12-19T06:28:48.073Z,1.28
2022-12-19T06:31:15.982Z,1.29
2022-12-19T06:33:42.628Z,1.29
2022-12-19T06:36:16.691Z,1.32
2022-12-19T06:38:43.305Z,1.32
2022-12-19T06:41:29.516Z,1.32
2022-12-19T06:44:00.384Z,1.34
2022-12-19T06:46:27.354Z,1.32
2022-12-19T06:48:54.042Z,1.31
2022-12-19T06:51:21.469Z,1.30
2022-12-19T06:53:48.365Z,1.29
2022-12-19T06:56:16.645Z,1.28
2022-12-19T06:58:43.444Z,1.27
2022-12-19T07:01:21.166Z,1.27
2022-12-19T07:03:49.478Z,1.27
2022-12-19T07:06:16.484Z,1.26
2022-12-19T07:08:43.179Z,1.25
2022-12-19T07:11:10.641Z,1.26
2022-12-19T07:13:37.281Z,1.25
2022-12-19T07:16:05.459Z,1.24
2022-12-19T07:18:36.240Z,1.23
2022-12-19T07:21:03.614Z,1.23
2022-12-19T07:23:30.422Z,1.22
2022-12-19T07:25:57.719Z,1.18
2022-12-19T07:28:24.965Z,1.20
2022-12-19T07:30:51.657Z,1.20
2022-12-19T07:33:21.405Z,1.19
2022-12-19T07:35:48.700Z,1.21
2022-12-19T07:38:15.416Z,1.19
2022-12-19T07:40:42.435Z,1.19
2022-12-19T07:43:09.370Z,1.19
2022-12-19T07:45:39.017Z,1.19
2022-12-19T07:48:06.956Z,1.20
2022-12-19T07:50:34.683Z,1.19
2022-12-19T07:53:01.686Z,1.19
2022-12-19T07:55:28.412Z,1.19
2022-12-19T07:57:55.691Z,1.21
2022-12-19T08:00:23.079Z,1.19
2022-12-19T08:02:49.868Z,1.18
2022-12-19T08:05:16.695Z,1.17
2022-12-19T08:07:43.350Z,1.14
2022-12-19T08:10:12.463Z,1.17
2022-12-19T08:12:39.583Z,1.16
2022-12-19T08:15:07.877Z,1.17
2022-12-19T08:17:35.587Z,1.17
2022-12-19T08:20:02.353Z,1.17
2022-12-19T08:22:30.498Z,1.17
2022-12-19T08:24:57.819Z,1.16
2022-12-19T08:27:25.078Z,1.17
2022-12-19T08:29:52.142Z,1.17
2022-12-19T08:32:21.561Z,1.16
2022-12-19T08:34:49.903Z,1.17
2022-12-19T08:37:17.161Z,1.16
2022-12-19T08:39:43.845Z,1.17
2022-12-19T08:42:10.484Z,1.18
2022-12-19T08:44:37.209Z,1.18
2022-12-19T08:47:03.911Z,1.17
2022-12-19T08:49:30.609Z,1.16
2022-12-19T08:51:57.349Z,1.15
2022-12-19T08:54:24.122Z,1.14
2022-12-19T08:56:50.788Z,1.14
2022-12-19T08:59:23.609Z,1.13
2022-12-19T09:01:57.651Z,1.10
2022-12-19T09:05:59.965Z,1.10
2022-12-19T09:07:16.764Z,1.07
2022-12-19T09:09:46.500Z,1.07
2022-12-19T09:12:14.425Z,1.06
2022-12-19T09:14:41.183Z,1.04
2022-12-19T09:17:08.194Z,1.04
2022-12-19T09:19:34.863Z,1.02
2022-12-19T09:22:01.512Z,1.02
2022-12-19T09:24:28.234Z,1.02
2022-12-19T09:26:54.850Z,0.99
2022-12-19T09:29:22.170Z,0.98
2022-12-19T09:31:55.869Z,0.97
2022-12-19T09:34:38.010Z,0.95
2022-12-19T09:37:16.656Z,0.93
2022-12-19T09:39:45.719Z,0.91
2022-12-19T09:42:50.644Z,0.89
2022-12-19T09:45:43.426Z,0.87
2022-12-19T09:48:23.645Z,0.83
2022-12-19T09:51:11.117Z,0.83
2022-12-19T09:53:59.790Z,0.82
2022-12-19T09:56:34.006Z,0.82
2022-12-19T09:59:41.198Z,0.82
2022-12-19T10:02:15.846Z,0.81
2022-12-19T10:04:49.312Z,0.80
2022-12-19T10:07:45.390Z,0.80
2022-12-19T10:11:38.180Z,0.81
2022-12-19T10:13:24.894Z,0.81
2022-12-19T10:16:03.888Z,0.81
2022-12-19T10:18:42.309Z,0.81
2022-12-19T10:22:15.633Z,0.81
2022-12-19T10:24:34.815Z,0.80
2022-12-19T10:27:12.375Z,0.80
2022-12-19T10:29:46.957Z,0.79
2022-12-19T10:32:30.376Z,0.82
2022-12-19T10:34:57.363Z,0.84
2022-12-19T10:37:47.316Z,0.86
2022-12-19T10:40:28.925Z,0.87
2022-12-19T10:42:58.880Z,0.90
2022-12-19T10:45:54.568Z,0.91
2022-12-19T10:48:30.509Z,0.93
2022-12-19T10:50:58.030Z,0.92
2022-12-19T10:53:29.785Z,0.95
2022-12-19T10:56:02.197Z,0.97
2022-12-19T10:58:35.328Z,1.00
2022-12-19T11:01:09.806Z,1.01
2022-12-19T11:03:38.838Z,1.02
2022-12-19T11:06:07.096Z,1.04
2022-12-19T11:08:36.406Z,1.05
2022-12-19T11:12:43.837Z,1.07
2022-12-19T11:20:18.966Z,1.07
2022-12-19T11:21:18.354Z,1.08
2022-12-19T11:29:26.119Z,1.08
2022-12-19T11:29:31.803Z,1.10
2022-12-19T11:30:37.135Z,1.11
2022-12-19T11:30:39.086Z,1.10
2022-12-19T11:34:19.126Z,1.13
2022-12-19T11:37:25.539Z,1.18
2022-12-19T11:40:14.994Z,1.19
2022-12-19T11:43:18.133Z,1.19
2022-12-19T11:46:02.343Z,1.21
2022-12-19T11:48:31.709Z,1.20
2022-12-19T11:51:35.969Z,1.21
2022-12-19T11:54:13.999Z,1.21
2022-12-19T11:56:41.123Z,1.22
2022-12-19T11:59:21.719Z,1.24
2022-12-19T12:02:06.811Z,1.26
2022-12-19T12:04:51.493Z,1.27
2022-12-19T12:08:09.080Z,1.28
2022-12-19T12:15:47.243Z,1.27
2022-12-19T12:25:31.246Z,1.26
2022-12-19T12:27:01.314Z,1.26
2022-12-19T12:31:07.145Z,1.25
2022-12-19T12:31:21.496Z,1.25
2022-12-19T12:31:43.907Z,1.25
2022-12-19T12:32:05.787Z,1.25
2022-12-19T12:35:33.433Z,1.25
2022-12-19T12:38:21.902Z,1.24
2022-12-19T12:41:06.171Z,1.22
2022-12-19T12:43:41.866Z,1.24
2022-12-19T12:46:36.679Z,1.23
2022-12-19T12:49:06.050Z,1.24
2022-12-19T12:51:34.343Z,1.26
2022-12-19T12:54:07.897Z,1.26
2022-12-19T12:56:39.398Z,1.27
2022-12-19T12:59:05.951Z,1.29
2022-12-19T13:01:40.918Z,1.28
2022-12-19T13:04:13.598Z,1.26
2022-12-19T13:07:00.435Z,1.24
2022-12-19T13:09:29.436Z,1.24
2022-12-19T13:12:42.973Z,1.25
2022-12-19T13:15:29.963Z,1.25
2022-12-19T13:17:56.563Z,1.24
2022-12-19T13:20:29.278Z,1.25
2022-12-19T13:22:58.892Z,1.28
2022-12-19T13:25:34.801Z,1.34
2022-12-19T13:28:01.415Z,1.42
2022-12-19T13:30:30.016Z,1.47
2022-12-19T13:32:56.625Z,1.53
2022-12-19T13:36:59.605Z,1.56
2022-12-19T13:39:54.017Z,1.58
2022-12-19T13:41:48.182Z,1.66
2022-12-19T13:44:20.782Z,1.74
2022-12-19T13:46:47.933Z,1.78
2022-12-19T13:49:20.592Z,1.85
2022-12-19T13:51:50.403Z,1.90
2022-12-19T13:54:24.159Z,1.96
2022-12-19T13:56:53.186Z,2.00
2022-12-19T13:59:21.539Z,2.03
2022-12-19T14:01:50.534Z,2.07
2022-12-19T14:04:26.511Z,2.10
2022-12-19T14:07:05.234Z,2.14
2022-12-19T14:11:28.345Z,2.18
2022-12-19T14:13:57.613Z,2.20
2022-12-19T14:15:41.582Z,2.21
2022-12-19T14:18:44.799Z,2.23
2022-12-19T14:22:10.854Z,2.23
2022-12-19T14:24:13.639Z,2.25
2022-12-19T14:28:17.826Z,2.24
2022-12-19T14:30:28.681Z,2.26
2022-12-19T14:33:40.694Z,2.29
2022-12-19T14:36:07.847Z,2.30
2022-12-19T14:39:22.830Z,2.31
2022-12-19T14:41:09.024Z,2.32
2022-12-19T14:43:56.711Z,2.33
2022-12-19T14:54:03.003Z,2.37
2022-12-19T14:54:11.539Z,2.36
2022-12-19T14:54:37.729Z,2.37
2022-12-19T14:56:03.816Z,2.37
2022-12-19T14:58:56.909Z,2.36
2022-12-19T15:01:29.876Z,2.37
2022-12-19T15:04:51.241Z,2.36
2022-12-19T15:07:08.330Z,2.37
2022-12-19T15:11:09.295Z,2.37
2022-12-19T15:14:48.855Z,2.37
2022-12-19T15:16:01.507Z,2.37
2022-12-19T15:18:38.086Z,2.36
2022-12-19T15:21:08.215Z,2.37
2022-12-19T15:23:35.116Z,2.40
2022-12-19T15:26:06.639Z,2.42
2022-12-19T15:28:46.282Z,2.42
2022-12-19T15:31:27.985Z,2.44
2022-12-19T15:36:41.609Z,2.45
2022-12-19T15:39:08.289Z,2.45
2022-12-19T15:41:35.560Z,2.48
2022-12-19T15:44:10.155Z,2.50
2022-12-19T15:46:40.025Z,2.50
2022-12-19T15:49:16.669Z,2.50
2022-12-19T15:51:43.589Z,2.49
2022-12-19T15:54:46.575Z,2.50
2022-12-19T15:56:57.267Z,2.52
2022-12-19T15:59:36.464Z,2.51
2022-12-19T16:02:15.872Z,2.51
2022-12-19T16:04:43.278Z,2.52
2022-12-19T16:07:36.454Z,2.50
2022-12-19T16:10:03.393Z,2.51
2022-12-19T16:12:42.305Z,2.53
2022-12-19T16:15:17.903Z,2.52
2022-12-19T16:17:44.736Z,2.51
2022-12-19T16:20:17.586Z,2.53
2022-12-19T16:22:45.044Z,2.53
2022-12-19T16:25:13.291Z,2.52
2022-12-19T16:27:40.245Z,2.52
2022-12-19T16:30:23.349Z,2.52
2022-12-19T16:32:50.349Z,2.53
2022-12-19T16:35:28.974Z,2.53
2022-12-19T16:38:06.919Z,2.52
2022-12-19T16:40:33.534Z,2.54
2022-12-19T16:43:13.872Z,2.54
2022-12-19T16:45:40.574Z,2.54
2022-12-19T16:48:27.614Z,2.53
2022-12-19T16:50:54.463Z,2.53
2022-12-19T16:53:21.081Z,2.55
2022-12-19T16:55:49.056Z,2.55
2022-12-19T16:58:20.321Z,2.53
2022-12-19T17:00:47.974Z,2.54
2022-12-19T17:03:29.450Z,2.54
2022-12-19T17:05:56.261Z,2.51
2022-12-19T17:08:23.946Z,2.52
2022-12-19T17:10:50.749Z,2.54
2022-12-19T17:13:18.019Z,2.55
2022-12-19T17:15:49.724Z,2.55
2022-12-19T17:18:34.904Z,2.55
2022-12-19T17:21:01.801Z,2.52
2022-12-19T17:23:30.579Z,2.52
2022-12-19T17:25:57.995Z,2.51
2022-12-19T17:28:24.646Z,2.51
2022-12-19T17:30:57.580Z,2.48
2022-12-19T17:33:38.035Z,2.48
2022-12-19T17:36:06.110Z,2.49
2022-12-19T17:38:34.026Z,2.49
2022-12-19T17:41:00.777Z,2.49
2022-12-19T17:43:27.414Z,2.49
2022-12-19T17:45:54.226Z,2.49
2022-12-19T17:48:32.823Z,2.50
2022-12-19T17:50:59.870Z,2.49
2022-12-19T17:53:27.148Z,2.49
2022-12-19T17:55:53.978Z,2.50
2022-12-19T17:58:21.759Z,2.50
2022-12-19T18:00:50.005Z,2.51
2022-12-19T18:03:25.893Z,2.49
2022-12-19T18:05:54.906Z,2.49
2022-12-19T18:08:31.453Z,2.47
2022-12-19T18:11:00.934Z,2.44
2022-12-19T18:13:29.363Z,2.43
2022-12-19T18:15:59.209Z,2.44
2022-12-19T18:18:30.562Z,2.42
2022-12-19T18:20:59.754Z,2.42
2022-12-19T18:23:26.668Z,2.40
2022-12-19T18:26:00.829Z,2.40
2022-12-19T18:28:28.631Z,2.39
2022-12-19T18:31:03.967Z,2.40
2022-12-19T18:33:38.199Z,2.40
2022-12-19T18:36:06.266Z,2.40
2022-12-19T18:38:33.041Z,2.40
2022-12-19T18:40:59.914Z,2.41
2022-12-19T18:43:28.943Z,2.38
2022-12-19T18:45:55.924Z,2.37
2022-12-19T18:48:27.622Z,2.38
2022-12-19T18:50:56.505Z,2.35
2022-12-19T18:53:34.547Z,2.35
2022-12-19T18:56:04.175Z,2.37
2022-12-19T18:58:31.084Z,2.34
2022-12-19T19:00:59.939Z,2.35
2022-12-19T19:03:30.349Z,2.33
2022-12-19T19:05:57.361Z,2.32
2022-12-19T19:08:29.838Z,2.28
2022-12-19T19:10:57.464Z,2.32
2022-12-19T19:13:26.541Z,2.32
2022-12-19T19:15:56.845Z,2.30
2022-12-19T19:18:29.886Z,2.30
2022-12-19T19:21:01.060Z,2.31
2022-12-19T19:23:38.028Z,2.29
2022-12-19T19:26:06.022Z,2.29
2022-12-19T19:28:33.088Z,2.30
2022-12-19T19:31:00.611Z,2.30
2022-12-19T19:33:32.189Z,2.29
2022-12-19T19:36:09.408Z,2.28
2022-12-19T19:38:39.970Z,2.29
2022-12-19T19:41:06.646Z,2.28
2022-12-19T19:43:35.616Z,2.29
2022-12-19T19:46:02.673Z,2.28
2022-12-19T19:48:29.750Z,2.29
2022-12-19T19:50:56.884Z,2.28
2022-12-19T19:53:23.821Z,2.28
2022-12-19T19:55:57.265Z,2.28
2022-12-19T19:58:24.032Z,2.27
2022-12-19T20:00:50.739Z,2.28
2022-12-19T20:03:22.522Z,2.26
2022-12-19T20:05:50.196Z,2.28
2022-12-19T20:08:16.955Z,2.29
2022-12-19T20:10:57.422Z,2.27
2022-12-19T20:13:24.584Z,2.28
2022-12-19T20:15:51.658Z,2.30
2022-12-19T20:18:18.700Z,2.31
2022-12-19T20:20:47.883Z,2.31
2022-12-19T20:23:14.541Z,2.31
2022-12-19T20:25:43.278Z,2.30
2022-12-19T20:28:12.403Z,2.29
2022-12-19T20:30:39.058Z,2.32
2022-12-19T20:33:05.691Z,2.32
2022-12-19T20:35:35.564Z,2.34
2022-12-19T20:38:02.740Z,2.36
2022-12-19T20:40:29.614Z,2.37
2022-12-19T20:42:56.233Z,2.37
2022-12-19T20:45:22.907Z,2.38
2022-12-19T20:47:49.502Z,2.38
2022-12-19T20:50:16.400Z,2.40
2022-12-19T20:52:43.008Z,2.40
2022-12-19T20:55:10.035Z,2.42
2022-12-19T20:57:36.978Z,2.46
2022-12-19T21:00:05.679Z,2.45
2022-12-19T21:02:46.550Z,2.47
2022-12-19T21:05:20.554Z,2.46
2022-12-19T21:07:47.272Z,2.48
2022-12-19T21:10:14.017Z,2.49
2022-12-19T21:12:47.135Z,2.50
2022-12-19T21:15:14.553Z,2.51
2022-12-19T21:17:41.192Z,2.50
2022-12-19T21:20:08.321Z,2.51
2022-12-19T21:22:34.991Z,2.52
2022-12-19T21:25:01.663Z,2.53
2022-12-19T21:27:28.273Z,2.54
2022-12-19T21:29:54.908Z,2.55
2022-12-19T21:32:21.633Z,2.55
2022-12-19T21:34:48.404Z,2.57
2022-12-19T21:37:15.030Z,2.56
2022-12-19T21:39:41.698Z,2.57
2022-12-19T21:42:08.369Z,2.57
2022-12-19T21:44:35.009Z,2.58
2022-12-19T21:47:01.742Z,2.58
2022-12-19T21:49:28.555Z,2.58
2022-12-19T21:51:55.189Z,2.58
2022-12-19T21:54:21.871Z,2.60
2022-12-19T21:56:48.600Z,2.59
2022-12-19T21:59:17.418Z,2.59
2022-12-19T22:01:44.966Z,2.62
2022-12-19T22:04:15.755Z,2.61
2022-12-19T22:06:42.492Z,2.63
2022-12-19T22:09:13.536Z,2.61
2022-12-19T22:11:40.464Z,2.60
2022-12-19T22:14:07.323Z,2.60
2022-12-19T22:16:35.229Z,2.60
2022-12-19T22:19:02.083Z,2.60
2022-12-19T22:21:29.967Z,2.61
2022-12-19T22:24:01.734Z,2.59
2022-12-19T22:26:30.317Z,2.61
2022-12-19T22:28:58.134Z,2.59
2022-12-19T22:31:32.804Z,2.60
2022-12-19T22:34:02.170Z,2.59
2022-12-19T22:36:30.658Z,2.61
2022-12-19T22:38:59.334Z,2.60
2022-12-19T22:41:26.795Z,2.59
2022-12-19T22:43:54.634Z,2.59
2022-12-19T22:46:24.245Z,2.58
2022-12-19T22:48:51.012Z,2.58
2022-12-19T22:51:18.716Z,2.59
2022-12-19T22:53:46.389Z,2.60
2022-12-19T22:56:15.280Z,2.57
2022-12-19T22:58:44.666Z,2.59
2022-12-19T23:01:23.594Z,2.59
2022-12-19T23:03:52.173Z,2.59
2022-12-19T23:06:19.800Z,2.58
2022-12-19T23:08:46.857Z,2.58
2022-12-19T23:11:17.214Z,2.58
2022-12-19T23:13:45.975Z,2.57
2022-12-19T23:16:13.439Z,2.56
2022-12-19T23:18:40.963Z,2.58
2022-12-19T23:21:16.403Z,2.58
2022-12-19T23:23:44.770Z,2.57
2022-12-19T23:26:16.439Z,2.58
2022-12-19T23:28:45.065Z,2.56
2022-12-19T23:31:13.317Z,2.57
2022-12-19T23:33:40.066Z,2.57
2022-12-19T23:36:07.178Z,2.57
2022-12-19T23:38:34.219Z,2.58
2022-12-19T23:41:06.939Z,2.59
2022-12-19T23:43:35.931Z,2.59
2022-12-19T23:46:07.989Z,2.58
2022-12-19T23:48:34.717Z,2.58
2022-12-19T23:51:04.357Z,2.57
2022-12-19T23:53:32.420Z,2.57
2022-12-19T23:55:59.582Z,2.57
2022-12-19T23:58:26.221Z,2.56
